Time;durP1;ratioP1;P1;durP2;ratioP2;P2;SDS_P1;SDS_P2;PMS_P1;PMS_P2;Temp;Humidity;BMP_temperature;BMP_pressure;BME280_temperature;BME280_humidity;BME280_pressure;Samples;Min_cycle;Max_cycle;Signal;HPM_P1;HPM_P2
2023/08/01 00:02:13;;;;;;;3.87;3.47;;;22.00;52.90;;;;;;20732;6839;117211;-75
2023/08/01 00:04:40;;;;;;;4.07;3.80;;;21.90;53.50;;;;;;20456;6854;308614;-74
2023/08/01 00:07:07;;;;;;;3.37;3.07;;;21.80;53.80;;;;;;20734;6839;118066;-73
2023/08/01 00:09:32;;;;;;;3.47;3.27;;;21.80;53.70;;;;;;20741;6838;117183;-74
2023/08/01 00:11:58;;;;;;;4.05;3.75;;;21.50;54.20;;;;;;20536;6834;307146;-74
2023/08/01 00:14:26;;;;;;;4.10;3.67;;;21.60;53.80;;;;;;20720;6839;118093;-74
2023/08/01 00:16:53;;;;;;;4.40;4.10;;;21.70;53.60;;;;;;20523;6839;336542;-74
2023/08/01 00:19:18;;;;;;;4.33;3.50;;;21.70;53.60;;;;;;20733;6839;118143;-74
2023/08/01 00:21:44;;;;;;;4.15;3.85;;;21.70;53.90;;;;;;20516;6839;308001;-74
2023/08/01 00:24:09;;;;;;;5.53;3.80;;;21.80;53.50;;;;;;20512;6839;307220;-72
2023/08/01 00:26:35;;;;;;;3.97;3.60;;;22.00;52.70;;;;;;20726;6834;120520;-74
2023/08/01 00:29:01;;;;;;;4.30;4.00;;;21.90;53.00;;;;;;20514;6839;311643;-74
2023/08/01 00:31:27;;;;;;;3.62;3.42;;;21.90;52.90;;;;;;20685;6854;117691;-74
2023/08/01 00:33:54;;;;;;;4.37;3.60;;;21.90;52.90;;;;;;20503;6839;282140;-73
2023/08/01 00:36:19;;;;;;;4.30;3.80;;;21.90;52.90;;;;;;20712;6837;118581;-74
2023/08/01 00:38:45;;;;;;;3.72;3.42;;;21.80;53.20;;;;;;20531;6837;282582;-74
2023/08/01 00:41:12;;;;;;;4.22;3.83;;;21.90;52.80;;;;;;20519;6837;309359;-76
2023/08/01 00:43:38;;;;;;;3.30;3.10;;;22.10;52.40;;;;;;20732;6839;117808;-74
2023/08/01 00:46:05;;;;;;;3.87;3.60;;;21.90;52.60;;;;;;20742;6834;120930;-74
2023/08/01 00:48:30;;;;;;;4.47;4.07;;;21.70;53.10;;;;;;20487;6839;307144;-74
2023/08/01 00:50:59;;;;;;;5.03;3.77;;;21.80;53.00;;;;;;20722;6839;117320;-74
2023/08/01 00:53:24;;;;;;;4.30;3.90;;;21.70;53.30;;;;;;20538;6835;278521;-74
2023/08/01 00:55:50;;;;;;;4.67;3.73;;;21.80;53.20;;;;;;20731;6839;117930;-74
2023/08/01 00:58:15;;;;;;;4.30;4.00;;;21.70;53.40;;;;;;20448;6854;278178;-74
2023/08/01 01:00:41;;;;;;;3.87;3.57;;;21.80;53.00;;;;;;20723;6839;117834;-72
2023/08/01 01:03:07;;;;;;;4.15;3.85;;;21.70;53.20;;;;;;20519;6839;278875;-74
2023/08/01 01:05:32;;;;;;;3.90;3.60;;;21.80;52.60;;;;;;20510;6839;323003;-74
2023/08/01 01:07:59;;;;;;;4.25;3.95;;;22.00;52.20;;;;;;20503;6835;279371;-71
2023/08/01 01:10:25;;;;;;;3.27;3.07;;;22.30;51.70;;;;;;20681;6839;117629;-75
2023/08/01 01:12:50;;;;;;;3.90;3.60;;;22.10;52.00;;;;;;20491;6839;324933;-72
2023/08/01 01:15:16;;;;;;;4.83;3.80;;;22.10;51.80;;;;;;20449;6839;309216;-72
2023/08/01 01:17:41;;;;;;;5.20;3.53;;;22.30;51.40;;;;;;20707;6837;121382;-74
2023/08/01 01:20:07;;;;;;;4.03;3.67;;;22.20;51.70;;;;;;20706;6838;117074;-73
2023/08/01 01:22:33;;;;;;;3.93;3.63;;;21.90;52.30;;;;;;20452;6853;280704;-74
2023/08/01 01:24:58;;;;;;;3.87;3.58;;;22.00;52.10;;;;;;20677;6854;117407;-74
2023/08/01 01:27:24;;;;;;;3.87;3.43;;;21.90;52.40;;;;;;20720;6839;120221;-73
2023/08/01 01:29:50;;;;;;;3.10;2.90;;;21.50;53.90;;;;;;20731;6839;117154;-72
2023/08/01 01:32:17;;;;;;;3.63;3.33;;;21.50;53.30;;;;;;20735;6834;117430;-73
2023/08/01 01:34:44;;;;;;;4.03;3.63;;;21.20;54.30;;;;;;20723;6839;117681;-74
2023/08/01 01:37:10;;;;;;;4.40;4.00;;;21.20;54.20;;;;;;20514;6839;278018;-74
2023/08/01 01:39:35;;;;;;;4.43;4.00;;;21.40;54.80;;;;;;20520;6837;307514;-72
2023/08/01 01:42:00;;;;;;;3.67;3.37;;;21.70;54.60;;;;;;20724;6839;117558;-74
2023/08/01 01:44:26;;;;;;;4.20;3.90;;;21.70;54.40;;;;;;20456;6854;283757;-74
2023/08/01 01:46:51;;;;;;;5.00;4.10;;;21.80;54.30;;;;;;20519;6839;299216;-73
2023/08/01 01:49:17;;;;;;;3.90;3.60;;;22.00;53.60;;;;;;20684;6854;117747;-73
2023/08/01 01:51:43;;;;;;;3.53;3.23;;;21.90;53.60;;;;;;20739;6839;117103;-74
2023/08/01 01:54:08;;;;;;;3.70;3.40;;;21.60;54.00;;;;;;20722;6839;117041;-74
2023/08/01 01:56:35;;;;;;;3.73;3.43;;;21.40;54.50;;;;;;20711;6839;127185;-73
2023/08/01 01:58:59;;;;;;;5.57;3.85;;;21.20;54.80;;;;;;20511;6839;278094;-74
2023/08/01 02:01:25;;;;;;;4.35;3.85;;;21.40;54.70;;;;;;20526;6839;337014;-73
2023/08/01 02:03:51;;;;;;;3.97;3.63;;;21.70;54.10;;;;;;20686;6854;117397;-74
2023/08/01 02:06:16;;;;;;;4.40;4.10;;;21.70;54.10;;;;;;20518;6839;311098;-73
2023/08/01 02:08:42;;;;;;;4.15;3.78;;;21.80;54.00;;;;;;20504;6839;325450;-74
2023/08/01 02:11:08;;;;;;;4.53;4.00;;;22.20;53.40;;;;;;20518;6839;312637;-73
2023/08/01 02:13:34;;;;;;;4.60;3.90;;;22.20;53.20;;;;;;20750;6835;117096;-72
2023/08/01 02:16:01;;;;;;;4.43;4.07;;;22.10;53.50;;;;;;20496;6839;335808;-74
2023/08/01 02:18:26;;;;;;;4.07;3.77;;;22.10;53.10;;;;;;20737;6839;117561;-73
2023/08/01 02:20:52;;;;;;;4.40;4.00;;;21.90;53.30;;;;;;20589;6839;320012;-73
2023/08/01 02:23:17;;;;;;;3.47;3.27;;;22.00;53.00;;;;;;20775;6839;116277;-73
2023/08/01 02:25:44;;;;;;;4.40;4.00;;;21.90;53.10;;;;;;20522;6839;307722;-74
2023/08/01 02:28:09;;;;;;;3.73;3.23;;;21.90;53.10;;;;;;20728;6839;117057;-73
2023/08/01 02:30:36;;;;;;;4.10;3.80;;;21.80;53.20;;;;;;20526;6835;310752;-72
2023/08/01 02:33:04;;;;;;;4.62;4.22;;;22.10;52.40;;;;;;20513;6838;336990;-72
2023/08/01 02:35:29;;;;;;;4.33;3.93;;;22.10;52.40;;;;;;20522;6839;306086;-72
2023/08/01 02:37:58;;;;;;;4.40;3.57;;;22.20;52.30;;;;;;20748;6834;121034;-76
2023/08/01 02:40:23;;;;;;;4.10;3.80;;;22.20;52.30;;;;;;20499;6839;309154;-73
2023/08/01 02:42:50;;;;;;;3.97;3.70;;;22.10;52.60;;;;;;20748;6834;117133;-73
2023/08/01 02:45:15;;;;;;;4.30;3.90;;;22.10;52.60;;;;;;20725;6839;117141;-73
2023/08/01 02:47:41;;;;;;;3.57;3.37;;;21.80;53.00;;;;;;20516;6839;313065;-73
2023/08/01 02:50:08;;;;;;;3.80;3.60;;;21.90;52.70;;;;;;20726;6839;117079;-74
2023/08/01 02:52:34;;;;;;;3.60;3.30;;;21.90;52.90;;;;;;20718;6834;117154;-74
2023/08/01 02:55:00;;;;;;;4.60;3.72;;;21.70;53.30;;;;;;20746;6834;122953;-74
2023/08/01 02:57:26;;;;;;;3.60;3.33;;;21.50;53.60;;;;;;20725;6834;117557;-73
2023/08/01 02:59:53;;;;;;;4.07;3.70;;;21.30;54.20;;;;;;20745;6834;118114;-72
2023/08/01 03:02:20;;;;;;;4.30;4.00;;;21.20;54.00;;;;;;20461;6839;342919;-76
2023/08/01 03:04:45;;;;;;;3.70;3.40;;;21.50;53.50;;;;;;20726;6839;117617;-73
2023/08/01 03:07:11;;;;;;;3.78;3.40;;;21.60;53.40;;;;;;20727;6839;117142;-72
2023/08/01 03:09:37;;;;;;;4.30;3.90;;;21.50;53.70;;;;;;20461;6854;298436;-72
2023/08/01 03:12:04;;;;;;;5.15;4.00;;;21.70;53.40;;;;;;20523;6839;307982;-74
2023/08/01 03:14:29;;;;;;;4.10;3.80;;;22.00;52.70;;;;;;20445;6854;289159;-73
2023/08/01 03:16:55;;;;;;;4.90;3.90;;;22.30;52.20;;;;;;20522;6839;277999;-72
2023/08/01 03:19:21;;;;;;;4.65;4.25;;;22.70;51.50;;;;;;20517;6839;308420;-72
2023/08/01 03:21:47;;;;;;;4.20;3.90;;;22.70;51.40;;;;;;20488;6839;346203;-73
2023/08/01 03:24:12;;;;;;;4.13;3.83;;;22.80;51.00;;;;;;20477;6839;313003;-73
2023/08/01 03:26:38;;;;;;;4.75;3.45;;;22.90;50.70;;;;;;20664;6839;118941;-73
2023/08/01 03:29:05;;;;;;;5.33;3.87;;;22.70;51.20;;;;;;20694;6839;118945;-72
2023/08/01 03:31:30;;;;;;;4.13;3.90;;;22.40;51.90;;;;;;20468;6839;313254;-74
2023/08/01 03:33:58;;;;;;;3.93;3.63;;;22.30;51.80;;;;;;20676;6839;117682;-74
2023/08/01 03:36:21;;;;;;;4.60;4.20;;;22.20;52.10;;;;;;20435;6839;337958;-74
2023/08/01 03:38:47;;;;;;;3.90;3.50;;;22.30;52.20;;;;;;20658;6854;117466;-74
2023/08/01 03:41:13;;;;;;;4.07;3.47;;;22.20;52.40;;;;;;20714;6839;117081;-73
2023/08/01 03:43:40;;;;;;;4.47;4.10;;;22.00;52.80;;;;;;20495;6838;279280;-74
2023/08/01 03:46:06;;;;;;;3.90;3.60;;;22.10;52.80;;;;;;20669;6853;117151;-74
2023/08/01 03:48:32;;;;;;;4.17;3.43;;;22.00;52.90;;;;;;20691;6839;120538;-74
2023/08/01 03:50:57;;;;;;;3.80;3.60;;;21.70;53.20;;;;;;20711;6839;117805;-74
2023/08/01 03:53:23;;;;;;;5.03;3.33;;;21.60;53.90;;;;;;20726;6839;117673;-72
2023/08/01 03:55:50;;;;;;;4.00;3.70;;;21.40;54.30;;;;;;20680;6854;118157;-74
2023/08/01 03:58:15;;;;;;;4.10;3.73;;;21.30;54.60;;;;;;20346;6839;290252;-73
2023/08/01 04:00:41;;;;;;;4.30;4.00;;;21.50;55.00;;;;;;20362;6839;308454;-74
2023/08/01 04:03:06;;;;;;;3.80;3.50;;;21.80;53.70;;;;;;20568;6854;117322;-73
2023/08/01 04:05:32;;;;;;;7.07;3.37;;;21.90;53.70;;;;;;20637;6839;117073;-75
2023/08/01 04:07:58;;;;;;;4.10;3.80;;;21.60;53.80;;;;;;20719;6839;117307;-71
2023/08/01 04:10:23;;;;;;;3.70;3.50;;;21.50;54.10;;;;;;20703;6839;117598;-73
2023/08/01 04:12:49;;;;;;;4.03;3.65;;;21.50;54.10;;;;;;20523;6834;281553;-78
2023/08/01 04:15:17;;;;;;;5.13;3.80;;;21.50;53.70;;;;;;20464;6854;292717;-75
2023/08/01 04:17:42;;;;;;;4.17;3.77;;;21.80;52.90;;;;;;20513;6839;282976;-72
2023/08/01 04:20:08;;;;;;;4.60;4.30;;;22.20;52.40;;;;;;20532;6834;328805;-72
2023/08/01 04:22:33;;;;;;;5.33;4.10;;;22.40;51.90;;;;;;20507;6835;311336;-72
2023/08/01 04:24:59;;;;;;;4.40;4.10;;;22.60;51.60;;;;;;20528;6835;336457;-72
2023/08/01 04:27:26;;;;;;;5.03;4.20;;;22.70;50.90;;;;;;20510;6835;282998;-72
2023/08/01 04:29:52;;;;;;;5.32;4.00;;;22.80;50.80;;;;;;20536;6835;307550;-72
2023/08/01 04:32:17;;;;;;;4.33;3.93;;;22.90;50.90;;;;;;20536;6835;311088;-72
2023/08/01 04:34:43;;;;;;;3.63;3.40;;;22.70;51.00;;;;;;20720;6839;117183;-72
2023/08/01 04:37:10;;;;;;;6.07;4.10;;;22.70;51.00;;;;;;20524;6835;335784;-71
2023/08/01 04:39:35;;;;;;;4.40;4.00;;;22.60;50.90;;;;;;20523;6835;277617;-71
2023/08/01 04:42:00;;;;;;;4.63;4.13;;;22.70;50.70;;;;;;20523;6835;311292;-72
2023/08/01 04:44:26;;;;;;;5.10;3.60;;;22.80;50.90;;;;;;20498;6835;310730;-72
2023/08/01 04:46:51;;;;;;;4.30;3.90;;;22.90;50.70;;;;;;20727;6839;117269;-71
2023/08/01 04:49:17;;;;;;;4.23;3.87;;;22.70;51.10;;;;;;20516;6839;307430;-72
2023/08/01 04:51:42;;;;;;;4.30;4.00;;;22.60;51.10;;;;;;20730;6839;117022;-72
2023/08/01 04:54:08;;;;;;;4.45;3.92;;;22.40;51.20;;;;;;20753;6835;117927;-72
2023/08/01 04:56:33;;;;;;;4.27;3.57;;;22.10;51.60;;;;;;20713;6833;117094;-71
2023/08/01 04:59:01;;;;;;;9.77;4.20;;;21.80;51.90;;;;;;20753;6834;121976;-71
2023/08/01 05:01:26;;;;;;;4.37;3.63;;;21.60;52.30;;;;;;20736;6834;118554;-71
2023/08/01 05:03:52;;;;;;;4.03;3.73;;;21.40;52.50;;;;;;20742;6834;122218;-71
2023/08/01 05:06:18;;;;;;;4.32;4.00;;;21.20;53.00;;;;;;20749;6834;116893;-75
2023/08/01 05:08:44;;;;;;;5.30;3.67;;;21.20;53.00;;;;;;20578;6834;120603;-71
2023/08/01 05:11:09;;;;;;;4.25;3.95;;;21.10;53.10;;;;;;20741;6834;117469;-70
2023/08/01 05:13:35;;;;;;;3.60;3.30;;;21.10;53.40;;;;;;20737;6834;117511;-71
2023/08/01 05:16:01;;;;;;;5.07;4.20;;;21.00;53.40;;;;;;20535;6834;279116;-71
2023/08/01 05:18:26;;;;;;;4.80;4.40;;;21.30;52.60;;;;;;20512;6834;310533;-72
2023/08/01 05:20:53;;;;;;;4.67;4.37;;;21.70;52.00;;;;;;20542;6834;277919;-71
2023/08/01 05:23:19;;;;;;;4.93;3.97;;;22.10;50.80;;;;;;20756;6834;117442;-70
2023/08/01 05:25:45;;;;;;;5.30;4.23;;;22.10;50.30;;;;;;20531;6834;340905;-70
2023/08/01 05:28:11;;;;;;;5.70;4.50;;;22.10;50.20;;;;;;20536;6834;277955;-71
2023/08/01 05:30:36;;;;;;;4.97;4.50;;;22.30;49.40;;;;;;20494;6839;278360;-70
2023/08/01 05:33:02;;;;;;;4.37;4.07;;;22.50;49.50;;;;;;20737;6837;118275;-72
2023/08/01 05:35:27;;;;;;;4.60;4.20;;;22.40;49.90;;;;;;20514;6839;307453;-70
2023/08/01 05:37:53;;;;;;;5.70;4.43;;;22.40;49.10;;;;;;20732;6837;117536;-71
2023/08/01 05:40:19;;;;;;;4.20;3.80;;;22.00;50.30;;;;;;20708;6839;117183;-73
2023/08/01 05:42:45;;;;;;;4.55;4.12;;;22.00;49.80;;;;;;20507;6837;306639;-72
2023/08/01 05:45:11;;;;;;;4.00;3.57;;;22.00;49.80;;;;;;20730;6839;123471;-71
2023/08/01 05:47:37;;;;;;;4.23;3.83;;;22.00;50.10;;;;;;20733;6839;122949;-70
2023/08/01 05:50:02;;;;;;;4.33;3.57;;;21.80;50.50;;;;;;20682;6854;117747;-69
2023/08/01 05:52:28;;;;;;;3.97;3.63;;;21.80;49.70;;;;;;20497;6839;312222;-70
2023/08/01 05:54:54;;;;;;;3.80;3.50;;;21.80;49.70;;;;;;20722;6839;117766;-72
2023/08/01 05:57:20;;;;;;;3.53;3.30;;;21.70;50.30;;;;;;20734;6835;117952;-71
2023/08/01 05:59:46;;;;;;;3.37;3.17;;;21.60;50.20;;;;;;20724;6839;117146;-71
2023/08/01 06:02:11;;;;;;;4.35;3.00;;;21.50;50.30;;;;;;20748;6835;122431;-71
2023/08/01 06:04:38;;;;;;;3.60;3.33;;;21.40;50.40;;;;;;20486;6839;421004;-70
2023/08/01 06:07:03;;;;;;;3.55;3.35;;;21.70;49.10;;;;;;20688;6852;117495;-70
2023/08/01 06:09:28;;;;;;;3.27;3.07;;;21.80;49.40;;;;;;20729;6839;117002;-71
2023/08/01 06:11:55;;;;;;;3.63;3.27;;;21.60;49.70;;;;;;20687;6854;117112;-71
2023/08/01 06:14:20;;;;;;;4.10;3.80;;;21.50;49.60;;;;;;20707;6839;118119;-71
2023/08/01 06:16:46;;;;;;;4.37;4.07;;;21.50;49.80;;;;;;20527;6839;308251;-71
2023/08/01 06:19:11;;;;;;;4.60;4.20;;;21.70;48.80;;;;;;20739;6839;117982;-71
2023/08/01 06:21:37;;;;;;;4.37;4.07;;;21.70;49.00;;;;;;20635;6854;118802;-71
2023/08/01 06:24:03;;;;;;;4.28;3.97;;;21.60;49.40;;;;;;20668;6839;118042;-71
2023/08/01 06:26:28;;;;;;;5.47;4.73;;;21.50;49.70;;;;;;20415;6854;280995;-70
2023/08/01 06:28:54;;;;;;;9.23;4.87;;;21.70;48.60;;;;;;20672;6839;121704;-71
2023/08/01 06:31:19;;;;;;;4.80;4.40;;;21.70;48.90;;;;;;20698;6839;116879;-71
2023/08/01 06:33:46;;;;;;;5.07;4.68;;;21.80;48.70;;;;;;20492;6839;282134;-72
2023/08/01 06:36:11;;;;;;;5.37;5.00;;;21.80;48.70;;;;;;20453;6854;279106;-71
2023/08/01 06:38:37;;;;;;;5.83;5.33;;;22.20;48.10;;;;;;20479;6839;278110;-71
2023/08/01 06:41:03;;;;;;;5.20;4.70;;;22.50;47.50;;;;;;20669;6854;117481;-72
2023/08/01 06:43:28;;;;;;;5.97;5.57;;;22.40;47.90;;;;;;20528;6839;281902;-71
2023/08/01 06:45:53;;;;;;;5.17;4.77;;;22.40;48.10;;;;;;20751;6835;117964;-71
2023/08/01 06:48:19;;;;;;;5.80;5.30;;;22.30;48.00;;;;;;20496;6839;278983;-70
2023/08/01 06:50:45;;;;;;;5.00;4.67;;;22.30;47.70;;;;;;20605;6839;117541;-70
2023/08/01 06:53:10;;;;;;;4.53;4.20;;;22.20;48.10;;;;;;20686;6854;117254;-71
2023/08/01 06:55:36;;;;;;;5.00;4.50;;;22.00;48.70;;;;;;20721;6839;117485;-72
2023/08/01 06:58:01;;;;;;;5.17;4.70;;;21.80;49.20;;;;;;20730;6839;117084;-71
2023/08/01 07:00:27;;;;;;;5.20;4.50;;;21.60;49.50;;;;;;20721;6839;117593;-72
2023/08/01 07:02:52;;;;;;;5.75;5.35;;;21.50;49.90;;;;;;20532;6835;307386;-71
2023/08/01 07:05:18;;;;;;;5.80;5.40;;;21.70;49.50;;;;;;20522;6839;308327;-71
2023/08/01 07:07:45;;;;;;;5.25;4.93;;;22.10;49.00;;;;;;20457;6854;300087;-71
2023/08/01 07:10:11;;;;;;;4.90;4.50;;;22.50;48.70;;;;;;20731;6839;117663;-70
2023/08/01 07:12:38;;;;;;;5.55;5.15;;;22.50;48.80;;;;;;20499;6837;335082;-71
2023/08/01 07:15:03;;;;;;;5.50;5.00;;;22.50;48.90;;;;;;20727;6839;118692;-71
2023/08/01 07:17:29;;;;;;;5.27;4.77;;;22.50;49.10;;;;;;20684;6854;121667;-70
2023/08/01 07:19:55;;;;;;;5.70;4.83;;;22.20;49.40;;;;;;20718;6838;118365;-70
2023/08/01 07:22:20;;;;;;;5.80;4.47;;;22.00;49.80;;;;;;20706;6839;118606;-71
2023/08/01 07:24:46;;;;;;;5.13;4.73;;;21.80;50.00;;;;;;20733;6839;117516;-70
2023/08/01 07:27:12;;;;;;;5.10;4.70;;;21.70;50.20;;;;;;20523;6837;307076;-72
2023/08/01 07:29:37;;;;;;;4.90;4.40;;;21.90;49.70;;;;;;20727;6839;117435;-70
2023/08/01 07:32:03;;;;;;;4.47;4.12;;;22.00;50.10;;;;;;20732;6839;122508;-70
2023/08/01 07:34:29;;;;;;;9.30;8.60;;;21.90;49.90;;;;;;20650;6854;119452;-71
2023/08/01 07:36:54;;;;;;;5.32;4.82;;;21.80;50.10;;;;;;20519;6839;341974;-72
2023/08/01 07:39:20;;;;;;;4.57;4.25;;;22.10;50.00;;;;;;20735;6839;117588;-70
2023/08/01 07:41:46;;;;;;;5.20;4.70;;;22.40;49.30;;;;;;20514;6839;278900;-70
2023/08/01 07:44:12;;;;;;;4.97;4.67;;;22.40;49.30;;;;;;20474;6854;329941;-71
2023/08/01 07:46:39;;;;;;;4.63;4.33;;;22.70;49.00;;;;;;20715;6839;119483;-71
2023/08/01 07:49:05;;;;;;;4.90;4.60;;;22.60;49.00;;;;;;20538;6839;280465;-71
2023/08/01 07:51:30;;;;;;;4.90;4.50;;;22.60;49.10;;;;;;20487;6854;308501;-71
2023/08/01 07:53:56;;;;;;;4.10;3.80;;;22.80;48.60;;;;;;20739;6839;116255;-70
2023/08/01 07:56:21;;;;;;;4.30;4.00;;;22.60;48.80;;;;;;20712;6839;117492;-71
2023/08/01 07:58:47;;;;;;;4.50;4.10;;;22.30;49.40;;;;;;20728;6839;121096;-71
2023/08/01 08:01:13;;;;;;;6.75;4.70;;;22.00;50.00;;;;;;20511;6839;308017;-70
2023/08/01 08:03:38;;;;;;;5.60;4.93;;;22.10;51.50;;;;;;20536;6835;307910;-73
2023/08/01 08:06:05;;;;;;;5.22;4.80;;;22.30;51.50;;;;;;20522;6839;278431;-72
2023/08/01 08:08:31;;;;;;;4.65;4.28;;;22.30;52.10;;;;;;20661;6854;117365;-72
2023/08/01 08:10:56;;;;;;;4.63;4.33;;;22.20;52.00;;;;;;20723;6839;118249;-71
2023/08/01 08:13:21;;;;;;;4.80;4.40;;;21.80;52.60;;;;;;20520;6839;277878;-72
2023/08/01 08:15:48;;;;;;;5.30;4.90;;;21.90;54.50;;;;;;20529;6835;307393;-72
2023/08/01 08:18:13;;;;;;;4.90;4.60;;;21.90;54.50;;;;;;20520;6839;278382;-72
2023/08/01 08:20:42;;;;;;;5.40;4.43;;;22.00;54.80;;;;;;20525;6835;286729;-72
2023/08/01 08:23:07;;;;;;;5.35;4.85;;;22.00;54.80;;;;;;20525;6839;337539;-72
2023/08/01 08:25:33;;;;;;;4.03;3.72;;;22.00;54.90;;;;;;20773;6835;116144;-72
2023/08/01 08:27:58;;;;;;;3.75;3.45;;;21.70;54.90;;;;;;20740;6835;118274;-72
2023/08/01 08:30:24;;;;;;;3.73;3.53;;;21.20;55.40;;;;;;20708;6838;117187;-71
2023/08/01 08:32:49;;;;;;;4.90;4.43;;;20.90;55.90;;;;;;20524;6839;278622;-71
2023/08/01 08:35:15;;;;;;;5.22;3.87;;;21.00;57.60;;;;;;20727;6839;117589;-72
2023/08/01 08:37:40;;;;;;;4.37;3.83;;;20.90;57.30;;;;;;20731;6839;117449;-73
2023/08/01 08:40:06;;;;;;;3.50;3.30;;;20.70;57.50;;;;;;20684;6854;117569;-72
2023/08/01 08:42:32;;;;;;;4.20;3.90;;;20.60;57.80;;;;;;20501;6839;308618;-72
2023/08/01 08:44:58;;;;;;;3.57;3.27;;;20.80;58.60;;;;;;20728;6839;120193;-71
2023/08/01 08:47:24;;;;;;;3.87;3.55;;;20.80;58.60;;;;;;20503;6839;307264;-72
2023/08/01 08:49:49;;;;;;;4.10;3.80;;;21.00;59.40;;;;;;20530;6834;303984;-73
2023/08/01 08:52:15;;;;;;;4.15;3.85;;;21.30;59.50;;;;;;20509;6839;343231;-71
2023/08/01 08:54:40;;;;;;;4.33;3.63;;;21.60;59.30;;;;;;20720;6834;117676;-71
2023/08/01 08:57:09;;;;;;;3.97;3.67;;;21.50;58.80;;;;;;20524;6839;282083;-71
2023/08/01 08:59:35;;;;;;;3.90;3.60;;;21.70;57.90;;;;;;20528;6834;306872;-71
2023/08/01 09:02:03;;;;;;;3.75;3.45;;;21.70;58.30;;;;;;20508;6839;336621;-71
2023/08/01 09:04:27;;;;;;;3.85;3.47;;;21.80;58.00;;;;;;20508;6834;277901;-72
2023/08/01 09:06:52;;;;;;;3.63;3.33;;;21.90;57.70;;;;;;20723;6839;117721;-72
2023/08/01 09:09:19;;;;;;;4.07;3.78;;;21.70;57.70;;;;;;20522;6835;341431;-72
2023/08/01 09:11:48;;;;;;;4.20;3.20;;;21.70;58.60;;;;;;20726;6839;117434;-72
2023/08/01 09:14:14;;;;;;;3.40;3.10;;;21.50;58.60;;;;;;20735;6835;117308;-71
2023/08/01 09:16:39;;;;;;;4.60;3.50;;;21.30;59.10;;;;;;20499;6839;337384;-73
2023/08/01 09:19:05;;;;;;;3.90;3.60;;;21.40;59.90;;;;;;20528;6835;310981;-72
2023/08/01 09:21:33;;;;;;;3.20;3.00;;;21.70;59.80;;;;;;20720;6839;119236;-71
2023/08/01 09:24:00;;;;;;;3.90;3.50;;;21.60;59.50;;;;;;20525;6835;306559;-72
2023/08/01 09:26:26;;;;;;;3.30;3.00;;;21.80;59.60;;;;;;20704;6835;118147;-72
2023/08/01 09:28:58;;;;;;;3.67;3.47;;;21.80;60.70;;;;;;20533;6835;336671;-72
2023/08/01 09:31:30;;;;;;;3.77;3.47;;;21.80;60.70;;;;;;20534;6835;304082;-72
2023/08/01 09:33:56;;;;;;;4.23;2.93;;;22.30;61.30;;;;;;20675;6854;117275;-71
2023/08/01 09:36:22;;;;;;;3.07;2.83;;;22.40;60.80;;;;;;20683;6839;117606;-70
2023/08/01 09:38:47;;;;;;;2.67;2.47;;;22.30;60.50;;;;;;20727;6839;117796;-71
2023/08/01 09:41:19;;;;;;;3.20;2.90;;;22.20;60.20;;;;;;20733;6835;117080;-71
2023/08/01 09:43:44;;;;;;;3.07;2.87;;;22.00;60.00;;;;;;20518;6839;277889;-72
2023/08/01 09:46:11;;;;;;;2.85;2.40;;;22.10;59.50;;;;;;20669;6854;117238;-75
2023/08/01 09:48:37;;;;;;;2.17;2.07;;;22.10;59.20;;;;;;20709;6839;117104;-74
2023/08/01 09:51:12;;;;;;;2.83;2.40;;;21.90;59.10;;;;;;20723;6839;121975;-73
2023/08/01 09:53:52;;;;;;;2.77;2.57;;;21.70;59.30;;;;;;20522;6839;308938;-71
2023/08/01 09:56:20;;;;;;;3.03;2.85;;;21.90;60.30;;;;;;20526;6839;321267;-73
2023/08/01 09:58:45;;;;;;;2.63;2.43;;;22.20;59.70;;;;;;20685;6854;117441;-71
2023/08/01 10:01:11;;;;;;;3.00;2.80;;;22.20;59.30;;;;;;20523;6839;310094;-72
2023/08/01 10:03:36;;;;;;;2.90;2.70;;;22.20;59.40;;;;;;20494;6839;278962;-72
2023/08/01 10:06:02;;;;;;;2.60;2.43;;;22.40;59.50;;;;;;20500;6834;336053;-71
2023/08/01 10:08:28;;;;;;;2.30;2.10;;;22.60;58.30;;;;;;20673;6839;117715;-71
2023/08/01 10:10:56;;;;;;;2.60;2.40;;;22.00;58.80;;;;;;20707;6834;122720;-71
2023/08/01 10:13:19;;;;;;;2.70;2.50;;;22.00;58.80;;;;;;20472;6839;279022;-72
2023/08/01 10:15:45;;;;;;;2.50;2.30;;;22.00;59.10;;;;;;20488;6834;309139;-70
2023/08/01 10:18:11;;;;;;;2.40;2.30;;;22.30;59.00;;;;;;20710;6839;117169;-72
2023/08/01 10:20:36;;;;;;;2.55;2.35;;;22.10;58.60;;;;;;20495;6835;282533;-72
2023/08/01 10:23:01;;;;;;;2.17;2.08;;;22.10;59.60;;;;;;20490;6839;307132;-71
2023/08/01 10:25:27;;;;;;;2.37;2.27;;;22.30;58.90;;;;;;20511;6835;310895;-71
2023/08/01 10:28:00;;;;;;;2.10;1.97;;;22.30;58.80;;;;;;20700;6839;117666;-72
2023/08/01 10:30:26;;;;;;;2.13;2.03;;;22.30;58.90;;;;;;20632;6854;123820;-71
2023/08/01 10:32:51;;;;;;;2.03;1.80;;;22.00;59.30;;;;;;20706;6839;117823;-72
2023/08/01 10:35:17;;;;;;;2.00;1.90;;;21.80;59.80;;;;;;20736;6835;117108;-70
2023/08/01 10:37:42;;;;;;;1.70;1.60;;;21.60;60.20;;;;;;20527;6835;307883;-72
2023/08/01 10:40:08;;;;;;;1.90;1.80;;;21.80;60.70;;;;;;20736;6835;117066;-72
2023/08/01 10:42:40;;;;;;;1.90;1.80;;;21.80;60.20;;;;;;20497;6839;290207;-71
2023/08/01 10:45:06;;;;;;;1.60;1.50;;;21.90;60.80;;;;;;20736;6835;117174;-70
2023/08/01 10:47:32;;;;;;;2.05;1.87;;;21.90;61.50;;;;;;20523;6839;308632;-71
2023/08/01 10:49:57;;;;;;;1.90;1.77;;;22.20;62.70;;;;;;20734;6839;117589;-72
2023/08/01 10:52:29;;;;;;;2.22;1.92;;;22.50;62.70;;;;;;20512;6839;278018;-70
2023/08/01 10:55:02;;;;;;;3.55;2.10;;;22.90;63.20;;;;;;20516;6838;337125;-70
2023/08/01 10:57:27;;;;;;;1.47;1.37;;;23.50;61.20;;;;;;20727;6839;118135;-71
2023/08/01 10:59:53;;;;;;;4.50;1.50;;;23.50;59.90;;;;;;20723;6839;117012;-72
2023/08/01 11:02:20;;;;;;;1.77;1.60;;;23.60;60.20;;;;;;20499;6834;305200;-72
2023/08/01 11:04:45;;;;;;;1.73;1.67;;;23.60;59.60;;;;;;20723;6839;118126;-72
2023/08/01 11:07:11;;;;;;;1.52;1.42;;;23.70;59.10;;;;;;20504;6834;309566;-71
2023/08/01 11:09:36;;;;;;;2.40;1.80;;;23.80;58.90;;;;;;20723;6839;117071;-72
2023/08/01 11:12:02;;;;;;;2.20;1.33;;;23.80;58.20;;;;;;20747;6834;117344;-70
2023/08/01 11:14:28;;;;;;;2.47;1.30;;;23.60;58.50;;;;;;20710;6839;117808;-72
2023/08/01 11:16:53;;;;;;;1.67;1.58;;;23.50;59.00;;;;;;20465;6854;312624;-71
2023/08/01 11:19:19;;;;;;;1.62;1.45;;;23.80;58.60;;;;;;20521;6839;278939;-71
2023/08/01 11:21:44;;;;;;;1.40;1.37;;;24.10;57.10;;;;;;20571;6839;276927;-72
2023/08/01 11:24:10;;;;;;;1.00;1.00;;;24.50;58.40;;;;;;20793;6839;116261;-71
2023/08/01 11:26:35;;;;;;;1.40;1.30;;;24.60;57.60;;;;;;20515;6834;306938;-72
2023/08/01 11:29:02;;;;;;;1.10;1.00;;;24.70;55.40;;;;;;20519;6839;283435;-73
2023/08/01 11:31:27;;;;;;;1.40;1.30;;;24.80;54.60;;;;;;20702;6839;117194;-72
2023/08/01 11:33:56;;;;;;;1.25;1.25;;;24.70;54.70;;;;;;20518;6839;296821;-71
2023/08/01 11:36:22;;;;;;;1.00;1.00;;;24.70;53.90;;;;;;20500;6835;282782;-73
2023/08/01 11:38:47;;;;;;;0.73;0.73;;;24.80;54.30;;;;;;20746;6835;118319;-72
2023/08/01 11:41:14;;;;;;;1.12;1.12;;;24.60;54.50;;;;;;20542;6835;276562;-72
2023/08/01 11:43:43;;;;;;;1.23;1.13;;;24.60;54.20;;;;;;20535;6835;307875;-72
2023/08/01 11:46:09;;;;;;;1.30;1.20;;;25.00;53.30;;;;;;20516;6839;331295;-73
2023/08/01 11:48:35;;;;;;;2.97;1.30;;;25.00;53.30;;;;;;20719;6835;119174;-73
2023/08/01 11:51:00;;;;;;;1.23;1.10;;;24.80;53.70;;;;;;20535;6835;310908;-73
2023/08/01 11:53:26;;;;;;;1.13;1.13;;;24.80;52.10;;;;;;20724;6839;117591;-73
2023/08/01 11:55:52;;;;;;;1.00;1.00;;;24.70;52.30;;;;;;20740;6835;117042;-72
2023/08/01 11:58:17;;;;;;;2.20;1.15;;;24.50;51.80;;;;;;20474;6854;278471;-73
2023/08/01 12:00:43;;;;;;;1.10;1.10;;;24.60;48.80;;;;;;20456;6839;312301;-72
2023/08/01 12:03:12;;;;;;;1.30;1.20;;;24.90;48.40;;;;;;20718;6839;118211;-72
2023/08/01 12:05:35;;;;;;;1.40;1.40;;;24.90;48.90;;;;;;20514;6833;306545;-72
2023/08/01 12:08:07;;;;;;;1.10;1.05;;;25.00;48.20;;;;;;20510;6839;283055;-72
2023/08/01 12:10:42;;;;;;;1.00;1.00;;;25.30;46.30;;;;;;20589;6854;117595;-72
2023/08/01 12:13:21;;;;;;;1.30;1.20;;;25.40;47.30;;;;;;20689;6839;117578;-72
2023/08/01 12:15:48;;;;;;;1.10;1.10;;;25.10;47.90;;;;;;20718;6839;117242;-72
2023/08/01 12:18:13;;;;;;;1.40;1.30;;;25.10;47.90;;;;;;20487;6839;307871;-72
2023/08/01 12:20:38;;;;;;;1.20;1.10;;;25.30;46.50;;;;;;20425;6854;309831;-71
2023/08/01 12:23:04;;;;;;;1.93;1.17;;;25.70;44.60;;;;;;20728;6839;117243;-72
2023/08/01 12:25:29;;;;;;;1.63;1.37;;;25.70;45.50;;;;;;20519;6839;278114;-72
2023/08/01 12:27:57;;;;;;;1.30;1.20;;;26.00;44.60;;;;;;20525;6839;297501;-72
2023/08/01 12:30:22;;;;;;;0.93;0.93;;;26.00;44.60;;;;;;20671;6854;117272;-73